Time;durP1;ratioP1;P1;durP2;ratioP2;P2;SDS_P1;SDS_P2;PMS_P1;PMS_P2;Temp;Humidity;BMP_temperature;BMP_pressure;BME280_temperature;BME280_humidity;BME280_pressure;Samples;Min_cycle;Max_cycle;Signal;HPM_P1;HPM_P2
2023/12/15 00:00:45;;;;;;;71.80;37.22;;;;;;;;;;5011063;28;20046;-76
2023/12/15 00:03:11;;;;;;;72.68;39.65;;;;;;;;;;5025646;28;20045;-76
2023/12/15 00:05:37;;;;;;;77.50;40.75;;;;;;;;;;5014271;28;20029;-76
2023/12/15 00:08:03;;;;;;;89.10;41.03;;;;;;;;;;5031664;28;20026;-77
2023/12/15 00:10:31;;;;;;;93.28;43.25;;;;;;;;;;5026345;28;20099;-76
2023/12/15 00:12:57;;;;;;;84.32;42.05;;;;;;;;;;5030650;28;20033;-76
2023/12/15 00:15:23;;;;;;;84.35;42.38;;;;;;;;;;5032397;28;20132;-76
2023/12/15 00:17:49;;;;;;;114.13;45.80;;;;;;;;;;5031076;28;20038;-76
2023/12/15 00:20:15;;;;;;;93.43;45.08;;;;;;;;;;5031788;28;20117;-76
2023/12/15 00:22:42;;;;;;;91.68;44.60;;;;;;;;;;5010758;28;20034;-76
2023/12/15 00:25:08;;;;;;;99.10;45.50;;;;;;;;;;5031553;28;20022;-77
2023/12/15 00:27:34;;;;;;;91.30;45.88;;;;;;;;;;5031854;28;20041;-77
2023/12/15 00:30:00;;;;;;;100.22;47.13;;;;;;;;;;5032713;28;20045;-76
2023/12/15 00:32:26;;;;;;;104.72;46.85;;;;;;;;;;5015410;28;20068;-76
2023/12/15 00:34:52;;;;;;;102.03;47.58;;;;;;;;;;5031299;28;20034;-77
2023/12/15 00:37:20;;;;;;;91.35;45.88;;;;;;;;;;4997980;28;20111;-77
2023/12/15 00:39:47;;;;;;;104.22;48.08;;;;;;;;;;5031076;28;20071;-77
2023/12/15 00:42:13;;;;;;;95.20;47.63;;;;;;;;;;5031101;28;20307;-77
2023/12/15 00:44:39;;;;;;;98.25;47.60;;;;;;;;;;5030915;28;20034;-77
2023/12/15 00:47:05;;;;;;;107.60;49.08;;;;;;;;;;5032144;28;20025;-77
2023/12/15 00:49:31;;;;;;;97.82;45.35;;;;;;;;;;5030480;28;20112;-77
2023/12/15 00:51:58;;;;;;;104.80;48.15;;;;;;;;;;5030288;28;20036;-77
2023/12/15 00:54:24;;;;;;;97.65;47.08;;;;;;;;;;5029860;28;20069;-78
2023/12/15 00:56:50;;;;;;;98.75;45.50;;;;;;;;;;5029776;28;20029;-77
2023/12/15 00:59:17;;;;;;;98.72;45.55;;;;;;;;;;5029944;28;20057;-77
2023/12/15 01:01:43;;;;;;;103.15;47.53;;;;;;;;;;5030057;28;20175;-77
2023/12/15 01:04:09;;;;;;;104.90;47.33;;;;;;;;;;5027590;28;20118;-77
2023/12/15 01:06:35;;;;;;;102.65;46.63;;;;;;;;;;5030681;28;20032;-76
2023/12/15 01:09:01;;;;;;;97.85;48.67;;;;;;;;;;5012311;28;20036;-77
2023/12/15 01:11:28;;;;;;;103.47;48.33;;;;;;;;;;5027577;28;20055;-76
2023/12/15 01:13:54;;;;;;;107.63;49.42;;;;;;;;;;5028590;28;20057;-77
2023/12/15 01:16:20;;;;;;;98.78;47.92;;;;;;;;;;5030197;28;20048;-77
2023/12/15 01:18:46;;;;;;;114.38;49.40;;;;;;;;;;5029696;28;20040;-78
2023/12/15 01:21:12;;;;;;;102.85;48.90;;;;;;;;;;5012757;28;20025;-77
2023/12/15 01:23:38;;;;;;;107.55;46.80;;;;;;;;;;5030402;28;20104;-76
2023/12/15 01:26:06;;;;;;;109.45;49.65;;;;;;;;;;5030068;28;20051;-77
2023/12/15 01:28:32;;;;;;;111.93;49.70;;;;;;;;;;5012101;28;20034;-77
2023/12/15 01:31:01;;;;;;;105.68;48.50;;;;;;;;;;5028836;28;20044;-78
2023/12/15 01:33:27;;;;;;;108.05;50.47;;;;;;;;;;5030906;28;20056;-76
2023/12/15 01:35:54;;;;;;;107.53;49.20;;;;;;;;;;5012179;28;20557;-78
2023/12/15 01:38:21;;;;;;;116.30;51.60;;;;;;;;;;5030103;28;20033;-80
2023/12/15 01:40:47;;;;;;;117.90;50.40;;;;;;;;;;5028521;28;20045;-77
2023/12/15 01:43:13;;;;;;;114.53;50.72;;;;;;;;;;5030523;28;20036;-77
2023/12/15 01:45:39;;;;;;;117.68;52.83;;;;;;;;;;5029093;28;20092;-77
2023/12/15 01:48:07;;;;;;;109.65;49.85;;;;;;;;;;5027927;28;20022;-76
2023/12/15 01:50:33;;;;;;;119.72;50.25;;;;;;;;;;5025824;28;20391;-77
2023/12/15 01:52:59;;;;;;;114.00;51.22;;;;;;;;;;5025826;28;20080;-77
2023/12/15 01:55:26;;;;;;;119.22;51.65;;;;;;;;;;5029831;28;20162;-78
2023/12/15 01:57:52;;;;;;;115.78;50.58;;;;;;;;;;5029268;28;20025;-77
2023/12/15 02:00:18;;;;;;;107.03;50.08;;;;;;;;;;5026540;28;20034;-76
2023/12/15 02:02:44;;;;;;;122.93;51.53;;;;;;;;;;5023638;28;20052;-77
2023/12/15 02:05:10;;;;;;;109.72;50.80;;;;;;;;;;5011958;28;20065;-76
2023/12/15 02:07:37;;;;;;;130.52;51.58;;;;;;;;;;5025161;28;20056;-77
2023/12/15 02:10:03;;;;;;;124.32;51.13;;;;;;;;;;5009850;28;20033;-76
2023/12/15 02:12:29;;;;;;;124.07;52.58;;;;;;;;;;5011858;28;20037;-76
2023/12/15 02:14:56;;;;;;;117.35;51.33;;;;;;;;;;5029387;28;20502;-76
2023/12/15 02:17:24;;;;;;;116.47;51.25;;;;;;;;;;5028666;28;20033;-75
2023/12/15 02:19:50;;;;;;;116.95;49.20;;;;;;;;;;5027608;28;20116;-75
2023/12/15 02:22:16;;;;;;;112.30;48.88;;;;;;;;;;5028278;28;20037;-76
2023/12/15 02:24:43;;;;;;;117.40;52.40;;;;;;;;;;5008881;28;20193;-76
2023/12/15 02:27:09;;;;;;;128.57;53.28;;;;;;;;;;5029438;28;20037;-76
2023/12/15 02:29:35;;;;;;;124.20;49.40;;;;;;;;;;5025810;28;20030;-78
2023/12/15 02:32:01;;;;;;;121.68;50.50;;;;;;;;;;5028055;28;20037;-76
2023/12/15 02:34:27;;;;;;;117.35;49.95;;;;;;;;;;5028583;28;20033;-77
2023/12/15 02:36:54;;;;;;;115.82;50.03;;;;;;;;;;5027941;28;20120;-77
2023/12/15 02:39:20;;;;;;;119.85;49.83;;;;;;;;;;5010201;28;20030;-78
2023/12/15 02:41:47;;;;;;;128.40;51.03;;;;;;;;;;5028664;28;20075;-76
2023/12/15 02:44:13;;;;;;;125.05;52.72;;;;;;;;;;5028429;28;20037;-77
2023/12/15 02:46:39;;;;;;;129.80;51.53;;;;;;;;;;5028559;28;20108;-77
2023/12/15 02:49:05;;;;;;;117.88;49.90;;;;;;;;;;5028188;28;20394;-76
2023/12/15 02:51:32;;;;;;;117.50;50.15;;;;;;;;;;5027616;28;20183;-77
2023/12/15 02:53:59;;;;;;;126.15;51.10;;;;;;;;;;5028035;28;20122;-77
2023/12/15 02:56:25;;;;;;;119.97;49.05;;;;;;;;;;5026304;28;20188;-76
2023/12/15 02:58:51;;;;;;;122.18;48.85;;;;;;;;;;4996457;28;20037;-77
2023/12/15 03:01:18;;;;;;;128.23;50.35;;;;;;;;;;5027713;28;20029;-76
2023/12/15 03:03:44;;;;;;;114.90;49.47;;;;;;;;;;5028128;28;20156;-76
2023/12/15 03:06:10;;;;;;;119.35;48.25;;;;;;;;;;5028012;28;20251;-78
2023/12/15 03:08:36;;;;;;;118.97;48.80;;;;;;;;;;5028691;28;20046;-77
2023/12/15 03:11:02;;;;;;;112.50;47.83;;;;;;;;;;5026575;28;20025;-76
2023/12/15 03:13:29;;;;;;;117.25;48.25;;;;;;;;;;5026034;28;20132;-76
2023/12/15 03:16:03;;;;;;;121.57;49.35;;;;;;;;;;5027374;28;20556;-78
2023/12/15 03:18:29;;;;;;;126.22;50.03;;;;;;;;;;5027830;28;20124;-77
2023/12/15 03:20:55;;;;;;;125.43;50.05;;;;;;;;;;5027234;28;20053;-77
2023/12/15 03:23:21;;;;;;;121.95;50.50;;;;;;;;;;5026532;28;20033;-78
2023/12/15 03:25:47;;;;;;;121.35;51.78;;;;;;;;;;5026452;28;20030;-77
2023/12/15 03:28:15;;;;;;;126.35;52.47;;;;;;;;;;5027095;28;20025;-79
2023/12/15 03:30:41;;;;;;;126.43;50.85;;;;;;;;;;5018100;28;20029;-76
2023/12/15 03:33:08;;;;;;;123.90;50.22;;;;;;;;;;5008697;28;20032;-76
2023/12/15 03:35:34;;;;;;;116.72;51.50;;;;;;;;;;5010643;28;20022;-77
2023/12/15 03:38:00;;;;;;;120.90;49.10;;;;;;;;;;5027547;28;20128;-76
2023/12/15 03:40:26;;;;;;;124.00;48.20;;;;;;;;;;5009188;28;20041;-78
2023/12/15 03:42:52;;;;;;;116.40;49.22;;;;;;;;;;5027741;28;20029;-75
2023/12/15 03:45:19;;;;;;;116.30;49.55;;;;;;;;;;5028065;28;20034;-77
2023/12/15 03:47:45;;;;;;;120.53;47.67;;;;;;;;;;5023986;28;20507;-78
2023/12/15 03:50:11;;;;;;;111.10;47.13;;;;;;;;;;5025612;28;20268;-76
2023/12/15 03:52:38;;;;;;;118.18;48.22;;;;;;;;;;5008776;28;20517;-77
2023/12/15 03:55:05;;;;;;;108.20;47.45;;;;;;;;;;5027909;28;20054;-77
2023/12/15 03:57:31;;;;;;;119.35;47.47;;;;;;;;;;5028105;28;20038;-76
2023/12/15 03:59:57;;;;;;;113.53;48.40;;;;;;;;;;5023441;28;20041;-76
2023/12/15 04:02:23;;;;;;;114.18;48.05;;;;;;;;;;5027109;28;20045;-77
2023/12/15 04:04:49;;;;;;;124.50;47.53;;;;;;;;;;5027475;28;20041;-77
2023/12/15 04:07:15;;;;;;;134.60;49.28;;;;;;;;;;5009651;28;20033;-77
2023/12/15 04:09:42;;;;;;;120.72;47.58;;;;;;;;;;5026299;28;20112;-78
2023/12/15 04:12:08;;;;;;;121.05;45.55;;;;;;;;;;5027637;28;20553;-76
2023/12/15 04:14:34;;;;;;;121.28;47.83;;;;;;;;;;5008805;28;20029;-77
2023/12/15 04:17:00;;;;;;;122.60;46.45;;;;;;;;;;5028473;28;20029;-76
2023/12/15 04:19:27;;;;;;;116.78;45.28;;;;;;;;;;5009242;28;20061;-76
2023/12/15 04:21:53;;;;;;;112.30;45.45;;;;;;;;;;5009799;28;20030;-77
2023/12/15 04:24:19;;;;;;;101.85;44.42;;;;;;;;;;5009850;28;20033;-76
2023/12/15 04:26:45;;;;;;;108.75;44.35;;;;;;;;;;5027962;28;20052;-76
2023/12/15 04:29:12;;;;;;;111.20;43.97;;;;;;;;;;5025690;28;20026;-77
2023/12/15 04:31:38;;;;;;;99.32;41.95;;;;;;;;;;5009522;28;20112;-76
2023/12/15 04:34:04;;;;;;;107.38;41.53;;;;;;;;;;5009375;28;20033;-78
2023/12/15 04:36:30;;;;;;;105.35;42.40;;;;;;;;;;5027571;28;20082;-76
2023/12/15 04:38:57;;;;;;;91.93;40.00;;;;;;;;;;5025363;28;20026;-77
2023/12/15 04:41:24;;;;;;;97.32;39.85;;;;;;;;;;5027205;28;20084;-78
2023/12/15 04:43:50;;;;;;;97.32;38.60;;;;;;;;;;5025526;28;20060;-78
2023/12/15 04:46:24;;;;;;;90.82;38.38;;;;;;;;;;5031020;28;20112;-78
2023/12/15 04:48:50;;;;;;;94.30;38.78;;;;;;;;;;5012506;28;20026;-76
2023/12/15 04:51:17;;;;;;;91.28;37.83;;;;;;;;;;5012288;28;20025;-77
2023/12/15 04:53:45;;;;;;;86.65;37.50;;;;;;;;;;5029528;28;20083;-76
2023/12/15 04:56:11;;;;;;;84.15;36.53;;;;;;;;;;5029636;28;20155;-77
2023/12/15 04:58:37;;;;;;;89.93;39.08;;;;;;;;;;5028486;28;21385;-77
2023/12/15 05:01:04;;;;;;;86.57;37.58;;;;;;;;;;5030102;28;20036;-77
2023/12/15 05:03:30;;;;;;;92.38;38.17;;;;;;;;;;5028786;28;20139;-76
2023/12/15 05:05:56;;;;;;;84.85;35.42;;;;;;;;;;5029107;28;20026;-76
2023/12/15 05:08:22;;;;;;;89.43;36.88;;;;;;;;;;5012347;28;20034;-77
2023/12/15 05:10:48;;;;;;;86.30;37.25;;;;;;;;;;5028603;28;20038;-77
2023/12/15 05:13:14;;;;;;;98.43;37.30;;;;;;;;;;5029656;28;20418;-77
2023/12/15 05:15:41;;;;;;;84.63;37.92;;;;;;;;;;5012531;28;20034;-77
2023/12/15 05:18:07;;;;;;;87.05;35.15;;;;;;;;;;5030526;28;20029;-77
2023/12/15 05:20:36;;;;;;;82.30;33.25;;;;;;;;;;5030760;28;20402;-77
2023/12/15 05:23:03;;;;;;;83.88;34.17;;;;;;;;;;5028401;28;20092;-76
2023/12/15 05:25:29;;;;;;;83.30;33.42;;;;;;;;;;5029640;28;20029;-77
2023/12/15 05:27:57;;;;;;;79.68;32.33;;;;;;;;;;5011855;28;20029;-77
2023/12/15 05:30:23;;;;;;;70.80;31.23;;;;;;;;;;5029159;28;20063;-77
2023/12/15 05:32:49;;;;;;;79.45;29.95;;;;;;;;;;5030402;28;20069;-77
2023/12/15 05:35:15;;;;;;;71.07;29.48;;;;;;;;;;5028788;28;20633;-76
2023/12/15 05:37:42;;;;;;;74.13;29.15;;;;;;;;;;5012252;28;20125;-77
2023/12/15 05:40:11;;;;;;;70.03;27.77;;;;;;;;;;5030123;28;20525;-77
2023/12/15 05:42:37;;;;;;;83.35;30.13;;;;;;;;;;5011422;28;20552;-76
2023/12/15 05:45:04;;;;;;;66.22;28.88;;;;;;;;;;5030245;28;20053;-78
2023/12/15 05:47:31;;;;;;;63.55;28.38;;;;;;;;;;5011364;28;20053;-76
2023/12/15 05:49:57;;;;;;;65.28;27.83;;;;;;;;;;5028552;28;20380;-77
2023/12/15 05:52:25;;;;;;;63.88;27.77;;;;;;;;;;5008951;28;20037;-77
2023/12/15 05:54:51;;;;;;;69.40;26.60;;;;;;;;;;5010958;28;20206;-76
2023/12/15 05:57:17;;;;;;;67.18;25.88;;;;;;;;;;5030014;28;20049;-77
2023/12/15 05:59:43;;;;;;;62.42;26.30;;;;;;;;;;5030666;28;20044;-77
2023/12/15 06:02:09;;;;;;;70.32;25.63;;;;;;;;;;5028744;28;20284;-76
2023/12/15 06:04:36;;;;;;;66.47;25.50;;;;;;;;;;5029079;28;20067;-76
2023/12/15 06:07:02;;;;;;;63.10;25.65;;;;;;;;;;5011172;28;20030;-77
2023/12/15 06:09:28;;;;;;;63.05;27.00;;;;;;;;;;5025395;28;20064;-76
2023/12/15 06:11:55;;;;;;;62.67;23.73;;;;;;;;;;5010017;28;20030;-76
2023/12/15 06:14:21;;;;;;;70.32;23.73;;;;;;;;;;5027018;28;20414;-77
2023/12/15 06:16:47;;;;;;;69.40;23.20;;;;;;;;;;5030286;28;20040;-76
2023/12/15 06:19:14;;;;;;;49.70;21.52;;;;;;;;;;4995342;28;20041;-76
2023/12/15 06:21:40;;;;;;;64.65;22.05;;;;;;;;;;5029578;28;20120;-77
2023/12/15 06:24:06;;;;;;;69.10;21.85;;;;;;;;;;5028310;28;20049;-77
2023/12/15 06:26:32;;;;;;;64.82;23.35;;;;;;;;;;5007760;28;20479;-77
2023/12/15 06:28:59;;;;;;;58.42;22.55;;;;;;;;;;5019683;28;20041;-77
2023/12/15 06:31:25;;;;;;;61.33;22.70;;;;;;;;;;5030252;28;20029;-77
2023/12/15 06:33:55;;;;;;;50.55;20.45;;;;;;;;;;5027005;28;20102;-76
2023/12/15 06:36:21;;;;;;;48.05;20.33;;;;;;;;;;5027517;28;20025;-76
2023/12/15 06:38:48;;;;;;;67.43;22.77;;;;;;;;;;5010686;28;20032;-74
2023/12/15 06:41:14;;;;;;;60.90;21.85;;;;;;;;;;5018611;28;20091;-76
2023/12/15 06:43:41;;;;;;;58.92;21.98;;;;;;;;;;5013649;28;20029;-77
2023/12/15 06:46:07;;;;;;;65.25;21.27;;;;;;;;;;5016784;28;20025;-76
2023/12/15 06:48:34;;;;;;;67.97;21.55;;;;;;;;;;5022215;28;20052;-77
2023/12/15 06:51:01;;;;;;;68.55;20.85;;;;;;;;;;5026498;28;20033;-76
2023/12/15 06:53:27;;;;;;;65.15;20.02;;;;;;;;;;5008606;28;20053;-78
2023/12/15 06:55:53;;;;;;;61.63;21.05;;;;;;;;;;5006366;28;20055;-77
2023/12/15 06:58:19;;;;;;;54.75;20.83;;;;;;;;;;5008344;28;20060;-75
2023/12/15 07:00:46;;;;;;;61.38;20.00;;;;;;;;;;5010333;28;20140;-77
2023/12/15 07:03:12;;;;;;;62.58;20.20;;;;;;;;;;5005055;28;20495;-78
2023/12/15 07:05:38;;;;;;;56.97;20.83;;;;;;;;;;5006853;28;20368;-76
2023/12/15 07:08:04;;;;;;;58.20;20.25;;;;;;;;;;5007951;28;20040;-77
2023/12/15 07:10:31;;;;;;;59.50;19.23;;;;;;;;;;5004965;28;20032;-77
2023/12/15 07:12:57;;;;;;;58.53;19.70;;;;;;;;;;5002648;28;20061;-76
2023/12/15 07:15:25;;;;;;;51.75;17.98;;;;;;;;;;5007657;28;20052;-76
2023/12/15 07:17:51;;;;;;;59.65;18.05;;;;;;;;;;5005972;28;20033;-77
2023/12/15 07:20:17;;;;;;;49.22;18.35;;;;;;;;;;5006166;28;20044;-76
2023/12/15 07:22:43;;;;;;;65.00;17.95;;;;;;;;;;5006775;28;20055;-76
2023/12/15 07:25:10;;;;;;;62.70;18.08;;;;;;;;;;5008789;28;20038;-76
2023/12/15 07:27:36;;;;;;;53.28;18.38;;;;;;;;;;5022875;28;20153;-76
2023/12/15 07:30:03;;;;;;;56.85;17.30;;;;;;;;;;5004933;28;20052;-77
2023/12/15 07:32:29;;;;;;;58.63;17.08;;;;;;;;;;5002653;28;20030;-76
2023/12/15 07:34:57;;;;;;;60.25;18.77;;;;;;;;;;5005242;28;20081;-75
2023/12/15 07:37:23;;;;;;;69.85;19.40;;;;;;;;;;5012996;28;20445;-75
2023/12/15 07:39:49;;;;;;;57.97;16.95;;;;;;;;;;5006081;28;20048;-76
2023/12/15 07:42:17;;;;;;;48.47;16.77;;;;;;;;;;5006873;28;20348;-75
2023/12/15 07:44:43;;;;;;;58.30;16.33;;;;;;;;;;5003853;28;20515;-76
2023/12/15 07:47:09;;;;;;;58.65;17.55;;;;;;;;;;4997865;28;20037;-76
2023/12/15 07:49:35;;;;;;;59.67;16.70;;;;;;;;;;5002793;28;20136;-76
2023/12/15 07:52:01;;;;;;;52.03;14.60;;;;;;;;;;5006483;28;20030;-75
2023/12/15 07:54:29;;;;;;;55.65;16.10;;;;;;;;;;5018875;28;20049;-76
2023/12/15 07:56:55;;;;;;;50.92;16.55;;;;;;;;;;5019876;28;20476;-76
2023/12/15 07:59:21;;;;;;;55.03;15.52;;;;;;;;;;5016676;28;20475;-77
2023/12/15 08:01:56;;;;;;;45.92;14.07;;;;;;;;;;5007697;28;20041;-76
2023/12/15 08:04:22;;;;;;;55.88;16.42;;;;;;;;;;4997764;28;20499;-76
2023/12/15 08:06:48;;;;;;;51.45;15.27;;;;;;;;;;5016215;28;20017;-76
2023/12/15 08:09:15;;;;;;;49.38;13.75;;;;;;;;;;5026756;28;20372;-76
2023/12/15 08:11:41;;;;;;;49.40;13.25;;;;;;;;;;5026559;28;20135;-76
2023/12/15 08:14:07;;;;;;;44.85;13.27;;;;;;;;;;5022985;28;20034;-76
2023/12/15 08:16:34;;;;;;;58.22;12.77;;;;;;;;;;5027698;28;20404;-76
2023/12/15 08:19:05;;;;;;;55.17;13.52;;;;;;;;;;5002411;28;20590;-76
2023/12/15 08:21:31;;;;;;;40.92;12.98;;;;;;;;;;5030977;28;20137;-75
2023/12/15 08:23:58;;;;;;;58.80;13.48;;;;;;;;;;5029130;28;20025;-76
2023/12/15 08:26:27;;;;;;;44.80;12.85;;;;;;;;;;5013746;28;20504;-75
2023/12/15 08:28:53;;;;;;;44.70;12.13;;;;;;;;;;5029249;28;20034;-76
2023/12/15 08:31:21;;;;;;;46.53;13.38;;;;;;;;;;5030944;28;20120;-76
2023/12/15 08:33:47;;;;;;;63.67;14.90;;;;;;;;;;5027433;28;20038;-75
2023/12/15 08:36:14;;;;;;;44.67;11.50;;;;;;;;;;5027398;28;20056;-75
2023/12/15 08:38:41;;;;;;;47.28;11.73;;;;;;;;;;5029277;28;20068;-76
2023/12/15 08:41:07;;;;;;;50.50;12.48;;;;;;;;;;5030116;28;20037;-76
2023/12/15 08:43:34;;;;;;;49.13;12.13;;;;;;;;;;5007059;28;20061;-76
2023/12/15 08:46:00;;;;;;;46.08;10.65;;;;;;;;;;5022345;28;20037;-76
2023/12/15 08:48:26;;;;;;;39.08;10.00;;;;;;;;;;5029454;28;20040;-76
2023/12/15 08:50:53;;;;;;;43.75;10.68;;;;;;;;;;5030179;28;20346;-76
2023/12/15 08:53:19;;;;;;;55.85;10.77;;;;;;;;;;5007931;28;20069;-76
2023/12/15 08:55:46;;;;;;;43.25;9.85;;;;;;;;;;5002417;28;20467;-76
2023/12/15 08:58:14;;;;;;;43.40;9.65;;;;;;;;;;5007913;28;20061;-77
2023/12/15 09:00:40;;;;;;;42.05;9.48;;;;;;;;;;5011688;28;20680;-75
2023/12/15 09:03:07;;;;;;;34.67;8.88;;;;;;;;;;5008115;28;20045;-77
2023/12/15 09:05:34;;;;;;;34.88;9.68;;;;;;;;;;5011559;28;20025;-76
2023/12/15 09:08:00;;;;;;;42.50;9.40;;;;;;;;;;5010310;28;20034;-77
2023/12/15 09:10:33;;;;;;;43.13;9.35;;;;;;;;;;5006375;28;20143;-76
2023/12/15 09:13:02;;;;;;;40.95;9.52;;;;;;;;;;5006087;28;20057;-76
2023/12/15 09:15:28;;;;;;;43.33;9.07;;;;;;;;;;5010388;28;20109;-76
2023/12/15 09:17:54;;;;;;;41.58;10.18;;;;;;;;;;5009373;28;20041;-78
2023/12/15 09:20:23;;;;;;;39.05;7.75;;;;;;;;;;5010144;28;20061;-77
2023/12/15 09:22:49;;;;;;;32.72;8.32;;;;;;;;;;5005784;28;20030;-77
2023/12/15 09:25:15;;;;;;;40.05;8.48;;;;;;;;;;5010611;28;20029;-77
2023/12/15 09:27:42;;;;;;;42.70;8.27;;;;;;;;;;5012765;28;20145;-76
2023/12/15 09:30:08;;;;;;;36.30;8.70;;;;;;;;;;5010180;28;20494;-75
2023/12/15 09:32:34;;;;;;;28.88;8.68;;;;;;;;;;5009168;28;20038;-76
2023/12/15 09:35:00;;;;;;;38.95;9.32;;;;;;;;;;5007294;28;20029;-76
2023/12/15 09:37:26;;;;;;;36.42;8.73;;;;;;;;;;5010304;28;20037;-76
2023/12/15 09:39:53;;;;;;;34.28;7.90;;;;;;;;;;5007986;28;20030;-76
2023/12/15 09:42:21;;;;;;;35.38;9.57;;;;;;;;;;5007909;28;20042;-75
2023/12/15 09:44:48;;;;;;;28.40;7.40;;;;;;;;;;4991844;28;20454;-75
2023/12/15 09:47:15;;;;;;;32.10;7.72;;;;;;;;;;5008868;28;20026;-77
2023/12/15 09:49:41;;;;;;;38.53;7.57;;;;;;;;;;5004150;28;20454;-76
2023/12/15 09:52:08;;;;;;;43.03;8.35;;;;;;;;;;5001981;28;20040;-76
2023/12/15 09:54:34;;;;;;;26.10;6.93;;;;;;;;;;5021590;28;20049;-76
2023/12/15 09:57:01;;;;;;;34.30;8.15;;;;;;;;;;5011767;28;20037;-77
2023/12/15 09:59:27;;;;;;;38.40;7.45;;;;;;;;;;5012029;28;20430;-75
2023/12/15 10:01:53;;;;;;;34.42;6.93;;;;;;;;;;5028947;28;20072;-77
2023/12/15 10:04:19;;;;;;;37.75;8.40;;;;;;;;;;5010289;28;20430;-77
2023/12/15 10:06:47;;;;;;;30.45;7.22;;;;;;;;;;5028492;28;20029;-76
2023/12/15 10:09:13;;;;;;;32.42;7.55;;;;;;;;;;5009099;28;20021;-76
2023/12/15 10:11:40;;;;;;;26.83;6.20;;;;;;;;;;5027518;28;20031;-77
2023/12/15 10:14:09;;;;;;;28.98;6.63;;;;;;;;;;4989142;28;20484;-76
2023/12/15 10:16:37;;;;;;;28.23;6.80;;;;;;;;;;5028951;28;20108;-77
2023/12/15 10:19:10;;;;;;;32.10;7.00;;;;;;;;;;5028248;28;20025;-76
2023/12/15 10:21:36;;;;;;;32.10;7.57;;;;;;;;;;5007744;28;20021;-75
2023/12/15 10:24:19;;;;;;;33.75;6.95;;;;;;;;;;5009379;28;20037;-75
2023/12/15 10:26:46;;;;;;;25.23;7.90;;;;;;;;;;5025694;28;20021;-75
2023/12/15 10:29:12;;;;;;;29.10;6.80;;;;;;;;;;5028502;28;20320;-76
2023/12/15 10:31:39;;;;;;;24.17;7.40;;;;;;;;;;5009346;28;20052;-75
2023/12/15 10:34:05;;;;;;;29.05;6.93;;;;;;;;;;5027088;28;20080;-75
2023/12/15 10:36:33;;;;;;;28.38;6.97;;;;;;;;;;5027872;28;20021;-76
2023/12/15 10:39:00;;;;;;;34.88;7.32;;;;;;;;;;5028840;28;20036;-75
2023/12/15 10:41:30;;;;;;;34.03;7.50;;;;;;;;;;5010455;28;20083;-74
2023/12/15 10:43:59;;;;;;;33.60;7.78;;;;;;;;;;5024141;28;20037;-76
2023/12/15 10:46:27;;;;;;;26.92;7.35;;;;;;;;;;5011580;28;20025;-76
2023/12/15 10:48:54;;;;;;;32.92;6.53;;;;;;;;;;5028583;28;20026;-76
2023/12/15 10:51:24;;;;;;;28.20;6.57;;;;;;;;;;5027809;28;20037;-77
2023/12/15 10:53:53;;;;;;;34.03;5.93;;;;;;;;;;5005153;28;20042;-76
2023/12/15 10:56:19;;;;;;;29.27;5.93;;;;;;;;;;5025363;28;20084;-76
2023/12/15 10:58:45;;;;;;;35.28;5.93;;;;;;;;;;5025567;28;20030;-75
2023/12/15 11:01:14;;;;;;;25.63;5.30;;;;;;;;;;5009919;28;20071;-77
2023/12/15 11:03:41;;;;;;;27.73;6.00;;;;;;;;;;5007643;28;20033;-76
2023/12/15 11:06:07;;;;;;;21.08;6.00;;;;;;;;;;5027628;28;20443;-76
2023/12/15 11:08:33;;;;;;;30.35;5.65;;;;;;;;;;5028043;28;20386;-75
2023/12/15 11:11:00;;;;;;;26.02;6.10;;;;;;;;;;5027718;28;20033;-76
2023/12/15 11:13:45;;;;;;;25.80;6.72;;;;;;;;;;5026922;28;20548;-76
2023/12/15 11:16:11;;;;;;;22.55;6.30;;;;;;;;;;5028439;28;20029;-76
2023/12/15 11:18:43;;;;;;;30.63;5.70;;;;;;;;;;5010817;28;20034;-75
2023/12/15 11:21:10;;;;;;;23.95;5.15;;;;;;;;;;5025553;28;20123;-76
2023/12/15 11:23:56;;;;;;;30.70;6.95;;;;;;;;;;5023448;28;20018;-76
2023/12/15 11:26:26;;;;;;;24.27;5.15;;;;;;;;;;5011352;28;20064;-78
2023/12/15 11:28:56;;;;;;;18.60;4.78;;;;;;;;;;5027767;28;20053;-76
2023/12/15 11:31:28;;;;;;;23.50;4.72;;;;;;;;;;5026888;28;20052;-75
2023/12/15 11:33:55;;;;;;;20.05;4.85;;;;;;;;;;5010537;28;20030;-75
2023/12/15 11:36:21;;;;;;;21.83;4.70;;;;;;;;;;5027285;28;20051;-76
2023/12/15 11:38:48;;;;;;;21.60;4.85;;;;;;;;;;5010605;28;20044;-76
2023/12/15 11:41:17;;;;;;;18.52;4.22;;;;;;;;;;5029367;28;20037;-75
2023/12/15 11:43:44;;;;;;;25.85;5.22;;;;;;;;;;5028540;28;21043;-76
2023/12/15 11:46:11;;;;;;;32.38;5.10;;;;;;;;;;5027885;28;20033;-76
2023/12/15 11:48:37;;;;;;;20.33;4.85;;;;;;;;;;5010372;28;20120;-77
2023/12/15 11:51:03;;;;;;;20.90;4.22;;;;;;;;;;5028596;28;20116;-76
2023/12/15 11:53:32;;;;;;;19.40;3.78;;;;;;;;;;5010886;28;20036;-76
2023/12/15 11:56:01;;;;;;;19.83;4.20;;;;;;;;;;5030108;28;20042;-76
2023/12/15 11:58:27;;;;;;;18.30;3.40;;;;;;;;;;5027815;28;20029;-76
2023/12/15 12:00:54;;;;;;;15.48;3.78;;;;;;;;;;5029780;28;20060;-78
2023/12/15 12:03:20;;;;;;;24.02;3.78;;;;;;;;;;5032380;28;20029;-76
2023/12/15 12:05:48;;;;;;;14.77;3.70;;;;;;;;;;5032356;28;20195;-77
2023/12/15 12:08:14;;;;;;;19.70;4.22;;;;;;;;;;5014815;28;20022;-76
2023/12/15 12:10:41;;;;;;;19.65;3.85;;;;;;;;;;5031106;28;20060;-75
2023/12/15 12:13:08;;;;;;;22.08;4.22;;;;;;;;;;5030953;28;20028;-77
2023/12/15 12:15:48;;;;;;;15.73;3.72;;;;;;;;;;5014629;28;20079;-76
2023/12/15 12:18:14;;;;;;;22.30;4.60;;;;;;;;;;5031599;28;20029;-76
2023/12/15 12:20:41;;;;;;;20.83;4.05;;;;;;;;;;5030885;28;20033;-76
2023/12/15 12:23:07;;;;;;;22.60;4.10;;;;;;;;;;5027140;28;20478;-78
2023/12/15 12:25:35;;;;;;;14.88;3.22;;;;;;;;;;5026643;28;20025;-76
2023/12/15 12:28:01;;;;;;;15.40;3.78;;;;;;;;;;5027759;28;20509;-76
2023/12/15 12:30:28;;;;;;;15.20;3.67;;;;;;;;;;5017164;28;20048;-77
2023/12/15 12:32:54;;;;;;;16.83;3.53;;;;;;;;;;5018706;28;20192;-76
2023/12/15 12:35:21;;;;;;;12.10;3.47;;;;;;;;;;5024178;28;20029;-76
2023/12/15 12:37:48;;;;;;;17.52;3.97;;;;;;;;;;5031973;28;20057;-76
2023/12/15 12:40:14;;;;;;;16.73;4.20;;;;;;;;;;5014711;28;20111;-76
2023/12/15 12:42:40;;;;;;;17.42;3.55;;;;;;;;;;5032219;28;20053;-77
2023/12/15 12:45:07;;;;;;;15.27;3.83;;;;;;;;;;5032553;28;20437;-77
2023/12/15 12:47:37;;;;;;;15.55;3.42;;;;;;;;;;5032384;28;20040;-78
2023/12/15 12:50:04;;;;;;;20.77;4.38;;;;;;;;;;5028161;28;20033;-77
2023/12/15 12:52:30;;;;;;;20.52;4.38;;;;;;;;;;5029694;28;20545;-76
2023/12/15 12:54:56;;;;;;;21.20;4.30;;;;;;;;;;5028904;28;20124;-75
2023/12/15 12:57:28;;;;;;;19.77;3.55;;;;;;;;;;5030189;28;20218;-76
2023/12/15 12:59:54;;;;;;;16.15;4.03;;;;;;;;;;5032130;28;20103;-76
2023/12/15 13:02:20;;;;;;;19.90;3.72;;;;;;;;;;5014006;28;20033;-76
2023/12/15 13:04:46;;;;;;;22.00;3.78;;;;;;;;;;5014635;28;20108;-76
2023/12/15 13:07:19;;;;;;;17.10;3.10;;;;;;;;;;5031463;28;20265;-77
2023/12/15 13:09:45;;;;;;;21.15;3.38;;;;;;;;;;5031932;28;20030;-77
2023/12/15 13:12:17;;;;;;;19.55;3.17;;;;;;;;;;5032080;28;20129;-77
2023/12/15 13:14:43;;;;;;;19.30;4.90;;;;;;;;;;5032210;28;20505;-76
2023/12/15 13:17:10;;;;;;;16.27;2.90;;;;;;;;;;5031380;28;20041;-77
2023/12/15 13:19:37;;;;;;;13.10;2.95;;;;;;;;;;5013043;28;20073;-75
2023/12/15 13:22:03;;;;;;;15.75;3.20;;;;;;;;;;5031340;28;20033;-76
2023/12/15 13:24:29;;;;;;;12.77;3.95;;;;;;;;;;5031781;28;20033;-77
2023/12/15 13:26:56;;;;;;;16.65;3.35;;;;;;;;;;5031479;28;20049;-77
2023/12/15 13:29:26;;;;;;;20.40;3.38;;;;;;;;;;5031346;28;20394;-76
2023/12/15 13:31:52;;;;;;;14.95;3.05;;;;;;;;;;5024039;28;20034;-77
2023/12/15 13:34:18;;;;;;;19.00;3.53;;;;;;;;;;5030374;28;20407;-77
2023/12/15 13:36:44;;;;;;;17.55;3.30;;;;;;;;;;5031681;28;20033;-76
2023/12/15 13:39:12;;;;;;;13.65;3.22;;;;;;;;;;5013128;28;20036;-76
2023/12/15 13:41:38;;;;;;;20.00;3.85;;;;;;;;;;5029794;28;20404;-77
2023/12/15 13:44:05;;;;;;;23.30;3.50;;;;;;;;;;5031485;28;20045;-77
2023/12/15 13:46:31;;;;;;;18.77;4.00;;;;;;;;;;5030165;28;20463;-75
2023/12/15 13:48:58;;;;;;;22.60;4.15;;;;;;;;;;5011322;28;20065;-77
2023/12/15 13:51:25;;;;;;;19.27;4.18;;;;;;;;;;5026991;28;20037;-76
2023/12/15 13:53:54;;;;;;;27.33;3.60;;;;;;;;;;5031071;28;20112;-77
2023/12/15 13:56:23;;;;;;;17.85;3.50;;;;;;;;;;5030560;28;20427;-77
2023/12/15 13:58:49;;;;;;;21.50;3.85;;;;;;;;;;5031131;28;20127;-77
2023/12/15 14:01:15;;;;;;;24.88;4.22;;;;;;;;;;5030007;28;20413;-76
2023/12/15 14:03:41;;;;;;;20.92;3.60;;;;;;;;;;5013287;28;20037;-76
2023/12/15 14:06:09;;;;;;;20.30;4.10;;;;;;;;;;5029445;28;20037;-77
2023/12/15 14:08:36;;;;;;;26.13;4.47;;;;;;;;;;5030575;28;20068;-75
2023/12/15 14:11:02;;;;;;;22.00;4.20;;;;;;;;;;5022538;28;20033;-76
2023/12/15 14:13:28;;;;;;;18.95;4.55;;;;;;;;;;5012054;28;20037;-75
2023/12/15 14:15:54;;;;;;;22.52;4.10;;;;;;;;;;4993826;28;20049;-76